Time;durP1;ratioP1;P1;durP2;ratioP2;P2;SDS_P1;SDS_P2;PMS_P1;PMS_P2;Temp;Humidity;BMP_temperature;BMP_pressure;BME280_temperature;BME280_humidity;BME280_pressure;Samples;Min_cycle;Max_cycle;Signal;HPM_P1;HPM_P2
2022/07/19 00:01:59;;;;;;;6.68;2.25;;;18.30;96.70;;;;;;4978184;28;20177;-89
2022/07/19 00:04:24;;;;;;;6.28;1.80;;;18.20;96.80;;;;;;4978373;28;20311;-89
2022/07/19 00:06:50;;;;;;;3.92;1.85;;;18.20;96.80;;;;;;4977946;28;20187;-89
2022/07/19 00:09:16;;;;;;;7.47;2.15;;;18.10;97.00;;;;;;4977884;28;20247;-89
2022/07/19 00:11:44;;;;;;;4.32;2.08;;;18.10;97.20;;;;;;4978042;28;20255;-88
2022/07/19 00:14:10;;;;;;;2.30;1.63;;;18.10;97.10;;;;;;4978217;28;20189;-89
2022/07/19 00:16:36;;;;;;;3.55;2.10;;;18.10;97.30;;;;;;4978254;28;20312;-89
2022/07/19 00:19:01;;;;;;;3.33;1.60;;;18.00;97.60;;;;;;4978434;28;20227;-89
2022/07/19 00:21:28;;;;;;;4.35;1.90;;;18.00;97.70;;;;;;4978292;28;20180;-89
2022/07/19 00:23:54;;;;;;;3.08;1.70;;;17.90;97.90;;;;;;4978630;28;20161;-88
2022/07/19 00:26:19;;;;;;;3.15;1.67;;;17.90;98.10;;;;;;4977805;28;20522;-89
2022/07/19 00:28:45;;;;;;;2.92;1.83;;;17.80;98.10;;;;;;4989434;28;20279;-88
2022/07/19 00:31:11;;;;;;;5.00;1.90;;;17.80;98.30;;;;;;4979037;28;20616;-89
2022/07/19 00:33:36;;;;;;;2.30;1.52;;;17.80;98.20;;;;;;4977922;28;20227;-89
2022/07/19 00:36:02;;;;;;;5.75;1.75;;;17.80;98.30;;;;;;4978662;28;20265;-89
2022/07/19 00:38:28;;;;;;;5.78;1.60;;;17.80;98.00;;;;;;4982168;28;20234;-89
2022/07/19 00:40:53;;;;;;;4.95;2.35;;;17.80;98.10;;;;;;4985314;28;20212;-90
2022/07/19 00:43:19;;;;;;;4.47;2.03;;;17.70;98.40;;;;;;4978557;28;20219;-89
2022/07/19 00:45:45;;;;;;;4.25;2.15;;;17.60;98.60;;;;;;4977647;28;20180;-88
2022/07/19 00:48:10;;;;;;;4.40;1.92;;;17.60;98.70;;;;;;4977561;28;20616;-88
2022/07/19 00:50:36;;;;;;;6.28;2.00;;;17.50;98.80;;;;;;4977371;28;20180;-89
2022/07/19 00:53:05;;;;;;;4.78;2.22;;;17.60;98.50;;;;;;4977443;28;20222;-89
2022/07/19 00:55:32;;;;;;;2.00;1.60;;;17.60;98.30;;;;;;4977233;28;20180;-89
2022/07/19 00:57:59;;;;;;;3.30;1.77;;;17.60;98.60;;;;;;4984444;28;20630;-89
2022/07/19 01:00:27;;;;;;;4.65;1.90;;;17.50;98.40;;;;;;4995742;28;20183;-89
2022/07/19 01:03:01;;;;;;;4.68;2.30;;;17.50;98.50;;;;;;4996381;28;20623;-88
2022/07/19 01:05:27;;;;;;;5.05;1.90;;;17.50;98.60;;;;;;4996783;28;20191;-89
2022/07/19 01:07:52;;;;;;;3.97;1.98;;;17.50;98.70;;;;;;4996564;28;20179;-89
2022/07/19 01:10:18;;;;;;;2.30;1.55;;;17.50;98.60;;;;;;4995913;28;20226;-89
2022/07/19 01:12:44;;;;;;;3.08;1.90;;;17.50;98.40;;;;;;4996053;28;20207;-90
2022/07/19 01:15:22;;;;;;;3.33;1.88;;;17.40;98.40;;;;;;4996203;28;20295;-89
2022/07/19 01:17:49;;;;;;;3.17;1.70;;;17.40;98.70;;;;;;4995823;28;20172;-89
2022/07/19 01:20:16;;;;;;;4.13;1.60;;;17.40;98.20;;;;;;4997018;28;20233;-90
2022/07/19 01:22:43;;;;;;;5.80;2.05;;;17.40;98.50;;;;;;4997067;28;20375;-89
2022/07/19 01:25:09;;;;;;;5.30;2.05;;;17.20;98.90;;;;;;4996029;28;20180;-90
2022/07/19 01:27:48;;;;;;;5.90;2.20;;;17.10;99.00;;;;;;4997080;28;20183;-89
2022/07/19 01:30:20;;;;;;;4.43;1.90;;;17.10;99.00;;;;;;4995910;28;20175;-89
2022/07/19 01:32:47;;;;;;;4.63;2.17;;;17.00;99.30;;;;;;4997089;28;20200;-90
2022/07/19 01:35:13;;;;;;;5.72;2.03;;;17.00;99.50;;;;;;4995809;28;20180;-90
2022/07/19 01:37:40;;;;;;;5.15;2.10;;;16.90;99.70;;;;;;4989445;28;20181;-90
2022/07/19 01:40:08;;;;;;;4.22;1.70;;;17.00;99.70;;;;;;4976840;28;20187;-90
2022/07/19 01:42:34;;;;;;;3.40;1.90;;;16.90;99.60;;;;;;4970877;28;20173;-91
2022/07/19 01:45:00;;;;;;;4.38;1.80;;;17.00;99.70;;;;;;4957379;29;20165;-91
2022/07/19 01:47:26;;;;;;;2.40;1.52;;;17.00;99.80;;;;;;4958744;28;20244;-89
2022/07/19 01:49:52;;;;;;;6.68;1.92;;;16.90;99.50;;;;;;4974038;28;20611;-90
2022/07/19 01:52:18;;;;;;;5.28;2.03;;;16.90;99.70;;;;;;4976736;28;20208;-90
2022/07/19 01:54:44;;;;;;;2.85;2.03;;;16.90;99.50;;;;;;4977546;28;20180;-90
2022/07/19 01:57:09;;;;;;;3.80;2.03;;;17.00;99.60;;;;;;4976597;28;20184;-90
2022/07/19 01:59:36;;;;;;;3.45;2.08;;;17.00;99.60;;;;;;4976652;28;20629;-90
2022/07/19 02:02:04;;;;;;;3.35;1.85;;;17.00;99.50;;;;;;4977619;28;20185;-90
2022/07/19 02:04:29;;;;;;;5.00;1.80;;;17.00;99.80;;;;;;4976528;28;20292;-90
2022/07/19 02:06:55;;;;;;;2.60;1.60;;;16.80;99.90;;;;;;4976593;28;20268;-89
2022/07/19 02:09:21;;;;;;;4.68;1.90;;;16.90;99.90;;;;;;4976509;28;20530;-90
2022/07/19 02:11:46;;;;;;;2.90;1.88;;;16.80;99.90;;;;;;4975416;28;20205;-90
2022/07/19 02:14:12;;;;;;;5.80;1.83;;;16.70;99.90;;;;;;4975747;28;20204;-90
2022/07/19 02:16:38;;;;;;;6.63;2.13;;;16.70;99.90;;;;;;4974924;28;20209;-90
2022/07/19 02:19:05;;;;;;;3.78;1.80;;;16.60;99.90;;;;;;4976029;28;20169;-90
2022/07/19 02:21:31;;;;;;;8.10;2.20;;;16.60;99.90;;;;;;4976354;28;20180;-90
2022/07/19 02:24:01;;;;;;;4.18;1.88;;;16.50;99.90;;;;;;4975772;28;20181;-89
2022/07/19 02:26:27;;;;;;;2.75;1.88;;;16.40;99.90;;;;;;4976031;28;20181;-89
2022/07/19 02:28:53;;;;;;;4.47;2.03;;;16.40;99.90;;;;;;4975919;28;20275;-89
2022/07/19 02:31:19;;;;;;;5.10;1.90;;;16.40;99.90;;;;;;4975683;28;20189;-89
2022/07/19 02:33:46;;;;;;;4.38;1.60;;;16.40;99.90;;;;;;4975712;28;20279;-90
2022/07/19 02:36:12;;;;;;;3.55;1.92;;;16.40;99.90;;;;;;4975489;28;20501;-89
2022/07/19 02:38:38;;;;;;;5.10;2.15;;;16.30;99.90;;;;;;4981785;28;20190;-89
2022/07/19 02:41:04;;;;;;;7.75;1.92;;;16.30;99.90;;;;;;4996203;28;20554;-88
2022/07/19 02:43:32;;;;;;;1.90;1.55;;;16.20;99.90;;;;;;4993081;28;20238;-90
2022/07/19 02:45:58;;;;;;;5.25;1.77;;;16.10;99.90;;;;;;4975662;28;20180;-89
2022/07/19 02:48:23;;;;;;;6.32;2.13;;;16.10;99.90;;;;;;4975703;28;20681;-89
2022/07/19 02:50:49;;;;;;;4.80;2.00;;;16.10;99.90;;;;;;4975696;28;20179;-89
2022/07/19 02:53:14;;;;;;;7.97;1.80;;;16.10;99.90;;;;;;4975472;28;20669;-89
2022/07/19 02:55:40;;;;;;;11.70;2.17;;;16.00;99.90;;;;;;4975210;28;20176;-89
2022/07/19 02:58:06;;;;;;;5.38;2.10;;;15.90;99.90;;;;;;4974984;28;20536;-90
2022/07/19 03:00:32;;;;;;;3.92;2.15;;;16.00;99.90;;;;;;4975242;28;20180;-88
2022/07/19 03:05:44;;;;;;;4.05;1.85;;;16.00;99.90;;;;;;4982524;28;20207;-89
2022/07/19 03:08:10;;;;;;;3.25;2.33;;;16.00;99.90;;;;;;4993085;28;20235;-89
2022/07/19 03:10:36;;;;;;;4.63;2.13;;;15.80;99.90;;;;;;4974784;28;20207;-89
2022/07/19 03:13:03;;;;;;;3.88;1.80;;;15.80;99.90;;;;;;4975117;28;20220;-90
2022/07/19 03:15:29;;;;;;;5.30;2.10;;;15.80;99.90;;;;;;4975213;28;20172;-90
2022/07/19 03:17:55;;;;;;;3.33;1.95;;;15.80;99.90;;;;;;4975252;28;20184;-90
2022/07/19 03:20:21;;;;;;;5.20;1.92;;;15.80;99.90;;;;;;4975000;28;20176;-90
2022/07/19 03:22:49;;;;;;;9.25;2.05;;;15.80;99.90;;;;;;4975129;28;20208;-90
2022/07/19 03:25:15;;;;;;;6.18;2.13;;;15.90;99.90;;;;;;4975009;28;20196;-89
2022/07/19 03:27:40;;;;;;;3.72;1.90;;;15.90;99.90;;;;;;4978942;28;20611;-89
2022/07/19 03:30:06;;;;;;;9.35;2.72;;;15.90;99.90;;;;;;4994051;28;20172;-88
2022/07/19 03:32:32;;;;;;;3.78;2.05;;;15.90;99.90;;;;;;4994207;28;20654;-89
2022/07/19 03:34:59;;;;;;;5.32;1.98;;;15.90;99.90;;;;;;4995361;28;20179;-89
2022/07/19 03:37:25;;;;;;;3.42;1.80;;;15.90;99.90;;;;;;4987312;28;20192;-89
2022/07/19 03:39:50;;;;;;;6.18;2.05;;;15.80;99.90;;;;;;4985185;28;20175;-88
2022/07/19 03:42:16;;;;;;;3.28;2.10;;;15.80;99.90;;;;;;4993960;28;20172;-88
2022/07/19 03:44:43;;;;;;;8.65;2.10;;;15.70;99.90;;;;;;4993761;28;20195;-88
2022/07/19 03:47:08;;;;;;;2.83;1.58;;;15.60;99.90;;;;;;4994116;28;20176;-89
2022/07/19 03:49:34;;;;;;;2.97;2.00;;;15.60;99.90;;;;;;4994061;28;20246;-89
2022/07/19 03:52:00;;;;;;;4.45;2.10;;;15.60;99.90;;;;;;4994088;28;20214;-89
2022/07/19 03:54:26;;;;;;;3.28;1.95;;;15.50;99.90;;;;;;4995050;28;20180;-89
2022/07/19 03:56:51;;;;;;;3.50;2.08;;;15.50;99.90;;;;;;4987737;28;20206;-88
2022/07/19 03:59:17;;;;;;;2.58;2.03;;;15.50;99.90;;;;;;4992430;28;20175;-88
2022/07/19 04:01:43;;;;;;;4.93;1.98;;;15.60;99.90;;;;;;4993798;28;20250;-89
2022/07/19 04:04:10;;;;;;;5.28;2.55;;;15.60;99.90;;;;;;4993597;28;20267;-88
2022/07/19 04:06:39;;;;;;;3.88;2.13;;;15.70;99.90;;;;;;4993628;28;20180;-89
2022/07/19 04:09:05;;;;;;;12.50;2.15;;;15.80;99.90;;;;;;4985879;28;20283;-89
2022/07/19 04:11:30;;;;;;;4.18;1.98;;;15.80;99.90;;;;;;4974321;28;20212;-89
2022/07/19 04:13:59;;;;;;;7.85;2.08;;;15.80;99.90;;;;;;4974533;28;20279;-89
2022/07/19 04:16:25;;;;;;;3.28;2.00;;;15.80;99.90;;;;;;4974582;28;20188;-88
2022/07/19 04:18:50;;;;;;;3.30;2.10;;;15.80;99.90;;;;;;4975696;28;20615;-89
2022/07/19 04:21:16;;;;;;;3.63;2.10;;;15.80;99.90;;;;;;4975372;28;20181;-89
2022/07/19 04:23:43;;;;;;;4.18;1.80;;;15.80;99.90;;;;;;4975516;28;20189;-89
2022/07/19 04:26:08;;;;;;;5.88;1.80;;;15.80;99.90;;;;;;4975372;28;20640;-89
2022/07/19 04:28:34;;;;;;;4.70;2.20;;;15.70;99.90;;;;;;4974242;28;20231;-89
2022/07/19 04:30:59;;;;;;;3.20;1.90;;;15.80;99.90;;;;;;4975431;28;20181;-89
2022/07/19 04:33:25;;;;;;;4.25;1.85;;;15.90;99.90;;;;;;4973707;28;20216;-89
2022/07/19 04:35:53;;;;;;;3.67;2.38;;;16.00;99.90;;;;;;4975364;28;20181;-89
2022/07/19 04:38:19;;;;;;;4.18;2.47;;;16.10;99.90;;;;;;4977496;28;20616;-89
2022/07/19 04:40:45;;;;;;;3.42;2.10;;;16.20;99.90;;;;;;4976897;28;20608;-89
2022/07/19 04:43:11;;;;;;;3.58;1.80;;;16.20;99.90;;;;;;4977280;28;20191;-90
2022/07/19 04:45:36;;;;;;;5.25;1.95;;;16.20;99.90;;;;;;4977233;28;20177;-90
2022/07/19 04:48:02;;;;;;;3.42;1.90;;;16.30;99.90;;;;;;4978325;28;20177;-89
2022/07/19 04:50:28;;;;;;;8.73;1.90;;;16.40;99.90;;;;;;4976927;28;20187;-90
2022/07/19 04:52:54;;;;;;;4.53;2.10;;;16.50;99.90;;;;;;4978114;28;20208;-89
2022/07/19 04:55:20;;;;;;;5.03;2.45;;;16.60;99.90;;;;;;4976686;28;20184;-90
2022/07/19 04:57:46;;;;;;;5.72;2.28;;;16.70;99.90;;;;;;4977886;28;20247;-89
2022/07/19 05:00:12;;;;;;;8.20;2.10;;;16.80;99.90;;;;;;4976702;28;20608;-90
2022/07/19 05:02:38;;;;;;;5.10;1.90;;;16.90;99.90;;;;;;4978060;28;20243;-90
2022/07/19 05:05:05;;;;;;;7.15;2.20;;;17.00;99.90;;;;;;4976660;28;20179;-90
2022/07/19 05:07:31;;;;;;;4.75;2.10;;;17.10;99.90;;;;;;4977742;28;20187;-89
2022/07/19 05:09:57;;;;;;;3.33;2.28;;;17.20;99.90;;;;;;4977287;28;20548;-90
2022/07/19 05:12:23;;;;;;;2.65;2.00;;;17.30;99.90;;;;;;4982034;28;20215;-90
2022/07/19 05:14:48;;;;;;;6.97;2.15;;;17.30;99.90;;;;;;4980960;28;20191;-89
2022/07/19 05:17:14;;;;;;;4.72;1.77;;;17.40;99.90;;;;;;4994062;28;20796;-90
2022/07/19 05:19:40;;;;;;;5.75;2.42;;;17.40;99.90;;;;;;4982653;28;20268;-89
2022/07/19 05:22:06;;;;;;;3.95;2.45;;;17.50;99.90;;;;;;4976437;28;20188;-89
2022/07/19 05:24:32;;;;;;;4.95;2.28;;;17.50;99.90;;;;;;4976025;28;20188;-89
2022/07/19 05:26:58;;;;;;;3.60;2.10;;;17.60;99.90;;;;;;4977050;28;20165;-89
2022/07/19 05:29:23;;;;;;;4.45;1.95;;;17.70;99.90;;;;;;4974836;28;20234;-88
2022/07/19 05:31:49;;;;;;;4.50;2.33;;;17.80;99.90;;;;;;4976561;28;20212;-89
2022/07/19 05:34:15;;;;;;;4.28;2.33;;;17.80;99.90;;;;;;4975927;28;20181;-89
2022/07/19 05:36:41;;;;;;;6.05;1.90;;;17.90;99.90;;;;;;4975887;28;20188;-89
2022/07/19 05:39:07;;;;;;;3.20;1.92;;;18.00;99.90;;;;;;4976279;28;20513;-89
2022/07/19 05:41:33;;;;;;;7.07;2.80;;;18.10;99.90;;;;;;4975428;28;20187;-89
2022/07/19 05:43:59;;;;;;;3.35;1.90;;;18.20;99.90;;;;;;4992118;28;20636;-89
2022/07/19 05:46:24;;;;;;;4.82;2.08;;;18.30;99.90;;;;;;4994619;28;20271;-89
2022/07/19 05:48:50;;;;;;;4.68;2.03;;;18.40;99.90;;;;;;4974594;28;20223;-89
2022/07/19 05:51:16;;;;;;;4.68;2.13;;;18.50;99.90;;;;;;4975578;28;20212;-89
2022/07/19 05:53:42;;;;;;;6.13;2.47;;;18.50;99.90;;;;;;4975351;28;20201;-90
2022/07/19 05:56:08;;;;;;;7.18;1.90;;;18.60;99.10;;;;;;4974714;28;20231;-89
2022/07/19 05:58:34;;;;;;;3.20;1.95;;;18.60;98.70;;;;;;4975314;28;20200;-90
2022/07/19 06:01:18;;;;;;;16.83;2.53;;;18.70;98.60;;;;;;4976938;28;20177;-89
2022/07/19 06:03:58;;;;;;;8.75;2.92;;;18.80;98.20;;;;;;4975297;28;20185;-90
2022/07/19 06:06:26;;;;;;;5.13;2.17;;;19.00;99.20;;;;;;4975711;28;20608;-90
2022/07/19 06:08:52;;;;;;;6.45;1.95;;;19.00;98.60;;;;;;4974133;28;20256;-88
2022/07/19 06:11:17;;;;;;;3.95;1.80;;;19.10;98.20;;;;;;4973820;28;20643;-89
2022/07/19 06:13:45;;;;;;;4.70;2.33;;;19.20;98.00;;;;;;4975734;28;20184;-89
2022/07/19 06:16:11;;;;;;;4.63;2.20;;;19.30;97.50;;;;;;4975436;28;20172;-87
2022/07/19 06:18:37;;;;;;;7.70;2.42;;;19.40;98.50;;;;;;4976399;28;20168;-88
2022/07/19 06:21:08;;;;;;;5.07;2.47;;;19.50;98.70;;;;;;4974618;28;20698;-89
2022/07/19 06:23:34;;;;;;;6.03;2.33;;;19.60;98.00;;;;;;4974850;28;20181;-89
2022/07/19 06:26:00;;;;;;;4.28;2.45;;;19.70;97.50;;;;;;4974503;28;20181;-89
2022/07/19 06:28:26;;;;;;;7.03;2.50;;;19.80;96.60;;;;;;4974688;28;20250;-89
2022/07/19 06:30:52;;;;;;;7.55;2.55;;;19.90;96.60;;;;;;4974908;28;20188;-88
2022/07/19 06:33:18;;;;;;;7.50;2.13;;;20.00;96.70;;;;;;4974729;28;20302;-89
2022/07/19 06:35:44;;;;;;;5.35;2.47;;;20.10;96.50;;;;;;4974535;28;20588;-89
2022/07/19 06:38:09;;;;;;;9.75;2.40;;;20.20;96.40;;;;;;4975189;28;20187;-89
2022/07/19 06:40:35;;;;;;;10.23;2.70;;;20.30;95.30;;;;;;4974049;28;20223;-88
2022/07/19 06:43:01;;;;;;;6.32;2.47;;;20.40;95.00;;;;;;4974796;28;20208;-88
2022/07/19 06:45:26;;;;;;;7.53;2.63;;;20.60;95.80;;;;;;4974237;28;20219;-89
2022/07/19 06:47:52;;;;;;;3.30;2.10;;;20.70;95.00;;;;;;4975710;28;20219;-89
2022/07/19 06:50:19;;;;;;;4.07;2.33;;;20.90;94.40;;;;;;4975590;28;20180;-89
2022/07/19 06:52:44;;;;;;;5.75;2.22;;;21.00;94.00;;;;;;4974849;28;20220;-89
2022/07/19 06:55:10;;;;;;;5.20;2.05;;;21.10;93.80;;;;;;4973410;28;20203;-88
2022/07/19 06:57:36;;;;;;;4.03;2.28;;;21.30;93.80;;;;;;4974482;28;20187;-89
2022/07/19 07:00:04;;;;;;;4.63;2.40;;;21.50;93.80;;;;;;4974044;28;20195;-89
2022/07/19 07:02:29;;;;;;;3.97;2.30;;;21.60;93.50;;;;;;4974087;28;20505;-89
2022/07/19 07:04:55;;;;;;;5.63;2.42;;;21.80;93.00;;;;;;4974018;28;20625;-87
2022/07/19 07:07:20;;;;;;;5.25;2.20;;;22.10;91.90;;;;;;4974177;28;20180;-88
2022/07/19 07:09:46;;;;;;;5.82;2.30;;;22.30;92.40;;;;;;4973634;28;20236;-88
2022/07/19 07:12:12;;;;;;;4.25;2.30;;;22.60;92.60;;;;;;4975155;28;20200;-89
2022/07/19 07:14:37;;;;;;;7.82;2.30;;;22.80;91.90;;;;;;4974314;28;20187;-88
2022/07/19 07:17:03;;;;;;;5.90;2.47;;;23.00;91.60;;;;;;4973444;28;20616;-88
2022/07/19 07:19:29;;;;;;;4.57;2.22;;;23.30;92.00;;;;;;4975151;28;20188;-89
2022/07/19 07:21:57;;;;;;;8.02;2.30;;;23.50;92.10;;;;;;4973988;28;20247;-88
2022/07/19 07:24:23;;;;;;;4.10;2.30;;;23.70;90.50;;;;;;4975163;28;20271;-88
2022/07/19 07:26:48;;;;;;;5.13;2.50;;;23.90;88.50;;;;;;4973032;28;20703;-89
2022/07/19 07:29:14;;;;;;;3.17;2.15;;;24.00;88.40;;;;;;4991118;28;20180;-89
2022/07/19 07:31:39;;;;;;;7.35;2.15;;;24.20;88.20;;;;;;4976320;28;20643;-89
2022/07/19 07:34:05;;;;;;;7.63;2.25;;;24.40;88.50;;;;;;4974717;28;20172;-88
2022/07/19 07:36:32;;;;;;;5.82;2.50;;;24.50;87.50;;;;;;4973792;28;20183;-88
2022/07/19 07:38:58;;;;;;;7.85;2.20;;;24.60;87.40;;;;;;4974011;28;20191;-89
2022/07/19 07:41:24;;;;;;;6.45;2.53;;;24.80;87.80;;;;;;4977541;28;20254;-90
2022/07/19 07:43:49;;;;;;;6.72;2.40;;;25.00;88.40;;;;;;4993251;28;20607;-90
2022/07/19 07:46:15;;;;;;;4.40;2.15;;;25.20;87.10;;;;;;4993354;28;20179;-89
2022/07/19 07:48:41;;;;;;;5.82;1.90;;;25.30;86.80;;;;;;4994423;28;20164;-87
2022/07/19 07:51:06;;;;;;;5.07;1.80;;;25.50;87.60;;;;;;4994330;28;20226;-88
2022/07/19 07:53:32;;;;;;;12.52;2.35;;;25.60;85.90;;;;;;4986154;28;20266;-88
2022/07/19 07:55:58;;;;;;;7.00;1.90;;;25.80;86.90;;;;;;4992550;28;20506;-89
2022/07/19 07:58:24;;;;;;;9.75;2.38;;;26.00;86.00;;;;;;4992756;28;20246;-89
2022/07/19 08:00:49;;;;;;;2.92;1.90;;;26.00;86.00;;;;;;4993207;28;20187;-88
2022/07/19 08:03:17;;;;;;;4.68;1.80;;;26.20;83.80;;;;;;4976252;28;20616;-88
2022/07/19 08:05:47;;;;;;;5.70;2.33;;;26.30;85.60;;;;;;4969786;28;20251;-90
2022/07/19 08:08:16;;;;;;;3.42;1.75;;;26.40;81.20;;;;;;4970272;28;20359;-91
2022/07/19 08:10:42;;;;;;;2.40;1.60;;;26.50;79.60;;;;;;4975853;28;20184;-88
2022/07/19 08:13:07;;;;;;;6.20;2.17;;;26.70;80.30;;;;;;4978576;28;20204;-90
2022/07/19 08:15:34;;;;;;;7.25;2.08;;;26.90;79.40;;;;;;4977091;28;20213;-90
2022/07/19 08:17:59;;;;;;;4.78;2.00;;;27.10;77.00;;;;;;4977662;28;20199;-89
2022/07/19 08:20:25;;;;;;;3.70;1.50;;;27.30;76.70;;;;;;4978514;28;20173;-88
2022/07/19 08:22:51;;;;;;;3.72;1.63;;;27.50;77.10;;;;;;4977032;28;20188;-89
2022/07/19 08:25:17;;;;;;;3.13;1.80;;;27.70;77.60;;;;;;4976867;28;20604;-90
2022/07/19 08:27:45;;;;;;;3.83;1.50;;;27.80;74.60;;;;;;4977822;28;20188;-92
2022/07/19 08:30:12;;;;;;;5.38;1.92;;;28.00;73.20;;;;;;4977522;28;20212;-90
2022/07/19 08:32:38;;;;;;;4.60;2.08;;;28.10;73.00;;;;;;4977188;28;20212;-91
2022/07/19 08:35:06;;;;;;;3.50;1.90;;;28.30;74.40;;;;;;4978370;28;20173;-91
2022/07/19 08:37:31;;;;;;;3.92;1.92;;;28.40;75.00;;;;;;4977664;28;20235;-90
2022/07/19 08:39:57;;;;;;;2.80;1.80;;;28.40;74.90;;;;;;4992810;28;20563;-91
2022/07/19 08:42:24;;;;;;;3.35;1.73;;;28.40;73.90;;;;;;4985442;28;20216;-90
2022/07/19 08:44:51;;;;;;;5.80;1.90;;;28.50;73.40;;;;;;4977781;28;20189;-90
2022/07/19 08:47:21;;;;;;;9.98;1.98;;;28.50;73.60;;;;;;4977038;28;20192;-90
2022/07/19 08:49:48;;;;;;;4.63;2.30;;;28.60;74.40;;;;;;4976646;28;20177;-90
2022/07/19 08:52:16;;;;;;;2.63;1.98;;;28.60;73.60;;;;;;4976947;28;20204;-90
2022/07/19 08:54:41;;;;;;;3.63;2.10;;;28.70;72.20;;;;;;4976463;28;20188;-91
2022/07/19 08:59:51;;;;;;;3.85;2.33;;;29.00;73.10;;;;;;4959131;29;20224;-90
2022/07/19 09:02:17;;;;;;;4.00;2.00;;;29.10;73.70;;;;;;4973219;28;20185;-90
2022/07/19 09:04:43;;;;;;;6.03;2.13;;;29.20;71.70;;;;;;4989750;28;20187;-90
2022/07/19 09:07:09;;;;;;;8.77;2.03;;;29.30;70.60;;;;;;4995883;28;20180;-89
2022/07/19 09:09:36;;;;;;;4.88;2.30;;;29.50;70.10;;;;;;4983368;28;20232;-91
2022/07/19 09:12:06;;;;;;;3.53;2.10;;;29.60;71.00;;;;;;4975912;28;20227;-87
2022/07/19 09:14:34;;;;;;;2.80;1.85;;;29.70;71.90;;;;;;4976508;28;20180;-91
2022/07/19 09:17:05;;;;;;;2.58;1.92;;;29.90;71.80;;;;;;4959135;28;20184;-90
2022/07/19 09:19:33;;;;;;;5.00;2.13;;;30.00;69.80;;;;;;4958097;29;20165;-91
2022/07/19 09:22:11;;;;;;;5.25;2.10;;;30.20;71.10;;;;;;4957053;28;20180;-91
2022/07/19 09:24:48;;;;;;;2.78;1.90;;;30.20;70.40;;;;;;4957251;29;20276;-88
2022/07/19 09:27:19;;;;;;;6.88;2.45;;;30.30;68.80;;;;;;4957004;28;20235;-90
2022/07/19 09:29:51;;;;;;;5.20;1.95;;;30.50;69.30;;;;;;4976381;28;20252;-88
2022/07/19 09:32:19;;;;;;;4.00;2.08;;;30.60;69.70;;;;;;4975892;28;20266;-91
2022/07/19 09:34:54;;;;;;;4.22;2.00;;;30.70;69.50;;;;;;4977468;28;20192;-91
2022/07/19 09:37:23;;;;;;;5.07;2.13;;;30.80;68.70;;;;;;4976090;28;20180;-91
2022/07/19 09:39:54;;;;;;;4.05;2.05;;;31.00;70.50;;;;;;4975656;28;20179;-92
2022/07/19 09:42:22;;;;;;;5.85;1.95;;;31.10;65.90;;;;;;4975824;28;20202;-90
2022/07/19 09:44:58;;;;;;;4.82;2.03;;;31.20;66.90;;;;;;4975589;28;20188;-92
2022/07/19 09:47:32;;;;;;;3.13;1.58;;;31.30;67.00;;;;;;4967318;28;20172;-91
2022/07/19 09:49:58;;;;;;;3.00;1.67;;;31.40;67.90;;;;;;4976119;28;20186;-91
2022/07/19 09:52:25;;;;;;;3.30;1.70;;;31.50;65.40;;;;;;4976023;28;20294;-91
2022/07/19 09:54:52;;;;;;;7.07;1.30;;;31.40;63.10;;;;;;4975598;28;20176;-92
2022/07/19 09:57:23;;;;;;;2.15;1.40;;;31.50;61.20;;;;;;4976004;28;20536;-91
2022/07/19 09:59:54;;;;;;;3.45;1.30;;;31.60;62.80;;;;;;4975352;28;20168;-86
2022/07/19 10:02:22;;;;;;;3.15;1.42;;;31.70;63.30;;;;;;4975336;28;20176;-89
2022/07/19 10:04:49;;;;;;;3.35;1.73;;;31.90;62.30;;;;;;4975157;28;20191;-91
2022/07/19 10:07:19;;;;;;;2.30;1.50;;;32.00;65.40;;;;;;4975374;28;20182;-91
2022/07/19 10:09:45;;;;;;;2.60;1.50;;;32.00;63.30;;;;;;4974566;28;20590;-87
2022/07/19 10:12:12;;;;;;;2.60;1.67;;;32.20;62.60;;;;;;4974540;28;20208;-90
2022/07/19 10:14:38;;;;;;;4.05;1.60;;;32.30;63.90;;;;;;4975354;28;20275;-92
2022/07/19 10:17:17;;;;;;;2.42;1.20;;;32.30;62.90;;;;;;4975642;28;20192;-90
2022/07/19 10:19:46;;;;;;;2.13;1.38;;;32.40;61.50;;;;;;4975327;28;20179;-90
2022/07/19 10:22:14;;;;;;;3.92;1.38;;;32.60;62.00;;;;;;4956144;28;20180;-92
2022/07/19 10:24:58;;;;;;;2.78;1.30;;;32.70;61.00;;;;;;4956053;29;20569;-90
2022/07/19 10:27:23;;;;;;;3.08;1.75;;;32.70;60.80;;;;;;4957115;28;20168;-91
2022/07/19 10:29:50;;;;;;;8.55;1.50;;;32.70;59.90;;;;;;4968173;28;20527;-92
2022/07/19 10:32:15;;;;;;;2.33;1.35;;;32.90;61.10;;;;;;4975059;28;20211;-88
2022/07/19 10:34:42;;;;;;;1.92;1.38;;;32.90;61.20;;;;;;4974759;28;20184;-93
2022/07/19 10:37:08;;;;;;;3.28;1.23;;;32.90;60.10;;;;;;4976582;28;20203;-92
2022/07/19 10:39:39;;;;;;;4.75;1.48;;;32.80;61.70;;;;;;4983391;28;20187;-92
2022/07/19 10:42:20;;;;;;;3.53;1.48;;;32.70;62.20;;;;;;4974785;28;20187;-91
2022/07/19 10:44:54;;;;;;;2.15;1.30;;;32.70;61.50;;;;;;4974801;28;20207;-91
2022/07/19 10:47:36;;;;;;;2.83;1.38;;;32.80;62.30;;;;;;4974511;28;20215;-91
2022/07/19 10:50:19;;;;;;;1.73;1.33;;;32.90;60.30;;;;;;4976201;28;20275;-92
2022/07/19 10:52:46;;;;;;;3.95;1.60;;;33.10;61.50;;;;;;4975211;28;20211;-92
2022/07/19 10:55:23;;;;;;;3.80;1.60;;;33.20;61.00;;;;;;4993457;28;20183;-91
2022/07/19 10:58:06;;;;;;;5.68;1.60;;;33.20;59.70;;;;;;4993722;28;20230;-93
2022/07/19 11:00:44;;;;;;;2.17;1.50;;;33.30;59.10;;;;;;4984575;28;20180;-94
2022/07/19 11:03:22;;;;;;;3.83;1.20;;;33.40;61.20;;;;;;4974758;28;20175;-90
2022/07/19 11:05:56;;;;;;;1.88;1.40;;;33.50;59.00;;;;;;4975694;28;20203;-93
2022/07/19 11:08:34;;;;;;;2.30;1.60;;;33.60;59.90;;;;;;4975774;28;20219;-94
2022/07/19 11:11:08;;;;;;;2.15;1.45;;;33.80;57.60;;;;;;4974619;28;20537;-92
2022/07/19 11:13:35;;;;;;;1.85;1.20;;;33.80;59.80;;;;;;4976105;28;20254;-92
2022/07/19 11:16:05;;;;;;;3.63;1.50;;;33.90;58.80;;;;;;4974578;28;20172;-92
2022/07/19 11:18:31;;;;;;;1.67;1.45;;;34.00;57.50;;;;;;4974194;28;20191;-93
2022/07/19 11:20:59;;;;;;;3.10;1.50;;;33.90;55.60;;;;;;4975858;28;20626;-91
2022/07/19 11:23:29;;;;;;;2.15;1.20;;;33.90;55.00;;;;;;4975906;28;20255;-93
2022/07/19 11:26:12;;;;;;;1.67;1.25;;;33.80;56.00;;;;;;4974411;28;20539;-92
2022/07/19 11:28:41;;;;;;;1.55;1.05;;;33.90;57.70;;;;;;4974509;28;20183;-93
2022/07/19 11:31:20;;;;;;;1.95;1.02;;;34.10;57.20;;;;;;4974058;28;20234;-92
2022/07/19 11:33:53;;;;;;;2.05;1.63;;;34.20;54.70;;;;;;4974134;28;20654;-91
2022/07/19 11:36:20;;;;;;;1.77;1.40;;;34.30;56.70;;;;;;4974365;28;20180;-91
2022/07/19 11:38:46;;;;;;;2.88;1.48;;;34.30;55.50;;;;;;4974492;28;20649;-92
2022/07/19 11:41:12;;;;;;;1.95;1.40;;;34.40;56.60;;;;;;4975373;28;20172;-92
2022/07/19 11:43:38;;;;;;;2.55;1.63;;;34.40;53.40;;;;;;4975481;28;20163;-92
2022/07/19 11:46:03;;;;;;;2.80;1.20;;;34.40;56.40;;;;;;4977986;28;20622;-91
2022/07/19 11:48:30;;;;;;;2.30;1.55;;;34.30;55.50;;;;;;4978511;28;20200;-91
2022/07/19 11:51:02;;;;;;;7.55;1.50;;;34.20;55.00;;;;;;4978044;28;20217;-89
2022/07/19 11:53:27;;;;;;;2.50;1.23;;;34.30;56.40;;;;;;4977949;28;20183;-92
2022/07/19 11:55:53;;;;;;;5.78;1.88;;;34.30;53.90;;;;;;4977880;28;20455;-92
2022/07/19 11:58:19;;;;;;;2.60;1.50;;;34.50;51.80;;;;;;4975310;28;20187;-90
2022/07/19 12:00:45;;;;;;;2.08;1.55;;;34.50;51.70;;;;;;4958636;28;20184;-90
2022/07/19 12:03:16;;;;;;;5.95;1.42;;;34.60;52.80;;;;;;4958783;29;20204;-93
2022/07/19 12:05:56;;;;;;;2.55;1.73;;;34.70;52.10;;;;;;4958605;29;20180;-92
2022/07/19 12:08:31;;;;;;;2.35;1.45;;;34.80;53.40;;;;;;4961414;28;20234;-93
2022/07/19 12:10:56;;;;;;;5.88;1.50;;;34.80;52.20;;;;;;4977909;28;20545;-93
2022/07/19 12:13:33;;;;;;;2.85;1.55;;;34.90;53.60;;;;;;4977877;28;20175;-92
2022/07/19 12:16:07;;;;;;;3.67;1.50;;;34.90;51.60;;;;;;4977652;28;20183;-93
2022/07/19 12:18:52;;;;;;;2.42;1.30;;;34.90;52.60;;;;;;4977594;28;20187;-89
2022/07/19 12:21:28;;;;;;;2.58;1.35;;;35.00;53.60;;;;;;4983695;28;20179;-85
2022/07/19 12:24:14;;;;;;;5.20;1.55;;;35.10;52.20;;;;;;4976704;28;20191;-85
2022/07/19 12:26:51;;;;;;;4.70;1.50;;;35.20;51.30;;;;;;4973771;28;20534;-86
2022/07/19 12:29:42;;;;;;;3.45;1.40;;;35.30;53.30;;;;;;4959024;29;20172;-87
2022/07/19 12:32:11;;;;;;;2.20;1.20;;;35.20;52.70;;;;;;4957631;28;20191;-85
2022/07/19 12:34:49;;;;;;;2.45;1.30;;;35.20;51.20;;;;;;4957713;28;20180;-85
2022/07/19 12:37:25;;;;;;;2.92;1.38;;;35.20;52.50;;;;;;4957654;29;20169;-87
2022/07/19 12:40:13;;;;;;;2.88;1.40;;;35.20;52.40;;;;;;4972053;28;20183;-87
2022/07/19 12:42:48;;;;;;;2.55;1.30;;;35.20;49.50;;;;;;4975774;28;20211;-85
2022/07/19 12:45:19;;;;;;;2.50;1.13;;;35.10;49.20;;;;;;4968333;28;20184;-85
2022/07/19 12:47:46;;;;;;;2.83;1.45;;;35.30;51.20;;;;;;4968895;28;20267;-87
2022/07/19 12:50:36;;;;;;;3.25;1.40;;;35.40;51.50;;;;;;4973404;28;20191;-86
2022/07/19 12:53:04;;;;;;;3.17;1.50;;;35.40;49.60;;;;;;4972896;28;20184;-88
2022/07/19 12:55:32;;;;;;;2.72;1.23;;;35.10;48.80;;;;;;4965916;28;20624;-86